createdAt,value
2022-11-26T09:57:41.419Z,3.66
2022-11-26T10:00:39.633Z,3.61
2022-11-26T10:03:21.732Z,3.61
2022-11-26T10:06:07.883Z,3.60
2022-11-26T10:08:52.256Z,3.62
2022-11-26T10:11:58.560Z,3.65
2022-11-26T10:15:19.941Z,3.59
2022-11-26T10:18:13.692Z,3.59
2022-11-26T10:21:37.871Z,3.53
2022-11-26T10:24:32.482Z,3.55
2022-11-26T10:27:24.693Z,3.60
2022-11-26T10:30:10.652Z,3.55
2022-11-26T10:32:44.407Z,3.61
2022-11-26T10:35:30.081Z,3.61
2022-11-26T10:37:59.588Z,3.61
2022-11-26T10:40:31.408Z,3.71
2022-11-26T10:43:09.309Z,3.62
2022-11-26T10:45:54.387Z,3.65
2022-11-26T10:48:35.474Z,3.63
2022-11-26T10:51:17.602Z,3.65
2022-11-26T10:53:59.303Z,3.64
2022-11-26T10:56:53.424Z,3.75
2022-11-26T10:59:38.312Z,3.68
2022-11-26T11:02:39.349Z,3.73
2022-11-26T11:05:10.299Z,3.77
2022-11-26T11:07:38.986Z,3.88
2022-11-26T11:10:11.850Z,3.83
2022-11-26T11:12:42.831Z,3.86
2022-11-26T11:15:23.506Z,3.91
2022-11-26T11:17:55.219Z,3.86
2022-11-26T11:20:29.497Z,3.83
2022-11-26T11:23:12.457Z,3.84
2022-11-26T11:25:47.474Z,3.88
2022-11-26T11:28:23.045Z,3.96
2022-11-26T11:31:24.593Z,3.95
2022-11-26T11:34:20.647Z,3.96
2022-11-26T11:37:05.815Z,3.94
2022-11-26T11:39:36.173Z,3.94
2022-11-26T11:42:21.294Z,4.02
2022-11-26T16:06:38.372Z,3.76
2022-11-26T16:09:17.970Z,3.72
2022-11-26T16:26:18.822Z,4.10
2022-11-26T16:28:48.164Z,4.03
2022-11-26T16:31:17.370Z,4.00
2022-11-26T16:33:45.433Z,3.94
2022-11-26T16:36:33.631Z,3.85
2022-11-26T16:39:12.320Z,3.80
2022-11-26T16:41:51.603Z,3.76
2022-11-26T16:44:42.111Z,3.72
2022-11-26T16:47:41.075Z,3.74
2022-11-26T16:50:47.935Z,3.68
2022-11-26T16:53:17.695Z,3.65
2022-11-26T16:55:55.461Z,3.61
2022-11-26T16:58:48.061Z,3.66
2022-11-26T17:01:17.420Z,3.57
2022-11-26T17:03:46.079Z,3.57
2022-11-26T17:06:46.142Z,3.58
2022-11-26T17:09:20.646Z,3.57
2022-11-26T17:11:49.608Z,3.59
2022-11-26T17:14:19.787Z,3.61
2022-11-26T17:19:47.944Z,3.61
2022-11-26T17:22:21.564Z,3.63
2022-11-26T17:24:55.519Z,3.58
2022-11-26T17:27:25.083Z,3.61
2022-11-26T17:30:06.991Z,3.65
2022-11-26T17:35:51.895Z,3.57
2022-11-26T17:38:22.998Z,3.60
2022-11-26T17:40:58.199Z,3.61
2022-11-26T17:43:46.935Z,3.64
2022-11-26T17:46:25.666Z,3.64
2022-11-26T17:48:59.585Z,3.61
2022-11-26T17:51:37.180Z,3.58
2022-11-26T17:54:06.398Z,3.58
2022-11-26T17:56:35.502Z,3.58
2022-11-26T17:59:04.482Z,3.56
2022-11-26T18:01:33.613Z,3.58
2022-11-26T18:04:03.139Z,3.58
2022-11-26T18:07:22.338Z,3.57
2022-11-26T18:09:59.393Z,3.58
2022-11-26T18:12:29.350Z,3.57
2022-11-26T18:14:59.061Z,3.58
2022-11-26T18:17:28.801Z,3.57
2022-11-26T18:20:01.423Z,3.51
2022-11-26T18:33:39.396Z,4.04
2022-11-26T18:36:07.752Z,4.05
2022-11-26T18:38:41.442Z,3.90
2022-11-26T18:41:29.850Z,3.85
2022-11-26T18:43:58.170Z,3.84
2022-11-26T18:46:25.838Z,3.82
2022-11-26T18:48:57.019Z,3.79
2022-11-26T18:51:24.819Z,3.72
2022-11-26T18:53:52.673Z,3.64
2022-11-26T18:56:25.213Z,3.61
2022-11-26T18:58:52.712Z,3.56
2022-11-26T19:01:30.708Z,3.53
2022-11-26T19:04:04.298Z,3.47
2022-11-26T19:06:33.279Z,3.43
2022-11-26T19:09:10.971Z,3.42
2022-11-26T19:11:39.622Z,3.42
2022-11-26T19:14:15.826Z,3.43
2022-11-26T19:16:53.871Z,3.41
2022-11-26T19:19:32.668Z,3.36
2022-11-26T19:22:02.317Z,3.38
2022-11-26T19:24:30.465Z,3.37
2022-11-26T19:26:58.584Z,3.37
2022-11-26T19:29:45.177Z,3.40
2022-11-26T19:32:29.800Z,3.37
2022-11-26T19:35:06.559Z,3.38
2022-11-26T19:37:36.895Z,3.40
2022-11-26T19:40:06.570Z,3.39
2022-11-26T19:42:36.685Z,3.39
2022-11-26T19:45:08.786Z,3.37
2022-11-26T19:47:42.257Z,3.42
2022-11-26T19:50:13.724Z,3.42
2022-11-26T19:52:46.473Z,3.42
2022-11-26T19:55:16.618Z,3.41
2022-11-26T19:57:51.629Z,3.40
2022-11-26T20:00:20.912Z,3.43
2022-11-26T20:02:51.877Z,3.45
2022-11-26T20:05:23.457Z,3.47
2022-11-26T20:07:55.786Z,3.43
2022-11-26T20:10:51.151Z,3.36
2022-11-26T20:13:22.322Z,3.32
2022-11-26T20:19:04.013Z,3.38
2022-11-26T20:25:09.600Z,3.36
2022-11-26T20:41:29.239Z,3.80
2022-11-26T20:43:59.653Z,3.78
2022-11-26T20:46:29.047Z,3.75
2022-11-26T20:49:00.752Z,3.66
2022-11-26T20:51:29.583Z,3.59
2022-11-26T20:54:07.844Z,3.53
2022-11-26T20:56:40.319Z,3.47
2022-11-26T20:59:12.416Z,3.39
2022-11-26T21:01:48.877Z,3.33
2022-11-26T21:04:20.191Z,3.35
2022-11-26T21:06:49.358Z,3.29
2022-11-26T21:09:18.526Z,3.25
2022-11-26T21:11:47.746Z,3.23
2022-11-26T21:14:17.344Z,3.24
2022-11-26T21:16:51.758Z,3.31
2022-11-26T21:19:21.262Z,3.28
2022-11-26T21:21:56.554Z,3.23
2022-11-26T21:24:27.146Z,3.22
2022-11-26T21:26:56.293Z,3.21
2022-11-26T21:29:25.122Z,3.25
2022-11-26T21:32:05.658Z,3.27
2022-11-26T21:34:37.216Z,3.26
2022-11-26T21:37:09.681Z,3.33
2022-11-26T21:39:39.934Z,3.32
2022-11-26T22:04:32.598Z,4.16
2022-11-26T22:07:06.292Z,4.04
2022-11-26T22:09:37.202Z,4.02
2022-11-26T22:12:07.855Z,3.90
2022-11-26T22:14:49.672Z,3.87
2022-11-26T22:17:23.835Z,3.79
2022-11-26T22:19:51.304Z,3.77
2022-11-26T22:22:22.099Z,3.75
2022-11-26T22:24:49.802Z,3.72
2022-11-26T22:27:22.300Z,3.70
2022-11-26T22:29:55.648Z,3.67
2022-11-26T22:32:23.950Z,3.64
2022-11-26T22:34:54.457Z,3.58
2022-11-26T22:37:24.585Z,3.52
2022-11-26T22:39:54.609Z,3.49
2022-11-26T22:42:22.795Z,3.46
2022-11-26T22:44:53.263Z,3.51
2022-11-26T22:47:20.927Z,3.54
